createdAt,value
2019-05-23T00:00:32.848Z,17.30
2019-05-23T00:03:02.860Z,14.80
2019-05-23T00:05:32.990Z,15.37
2019-05-23T00:08:02.476Z,14.17
2019-05-23T00:10:32.526Z,15.23
2019-05-23T00:13:01.097Z,14.53
2019-05-23T00:15:32.750Z,16.03
2019-05-23T00:18:01.901Z,16.20
2019-05-23T00:20:32.722Z,16.03
2019-05-23T00:23:01.266Z,14.93
2019-05-23T00:25:31.137Z,16.03
2019-05-23T00:28:00.284Z,15.47
2019-05-23T00:30:33.440Z,16.37
2019-05-23T00:33:03.187Z,15.80
2019-05-23T00:35:32.164Z,14.90
2019-05-23T00:38:02.439Z,15.83
2019-05-23T00:40:31.227Z,15.37
2019-05-23T00:42:59.820Z,15.23
2019-05-23T00:45:29.946Z,14.17
2019-05-23T00:47:59.328Z,14.50
2019-05-23T00:50:28.131Z,14.07
2019-05-23T00:52:58.164Z,15.77
2019-05-23T00:55:28.224Z,13.93
2019-05-23T00:57:58.449Z,15.13
2019-05-23T01:00:28.457Z,15.37
2019-05-23T01:02:57.395Z,16.20
2019-05-23T01:05:28.039Z,16.07
2019-05-23T01:07:57.664Z,13.67
2019-05-23T01:10:26.756Z,16.57
2019-05-23T01:12:55.517Z,14.30
2019-05-23T01:15:24.590Z,14.67
2019-05-23T01:17:53.881Z,16.00
2019-05-23T01:20:25.121Z,14.33
2019-05-23T01:22:55.532Z,14.53
2019-05-23T01:25:24.652Z,13.97
2019-05-23T01:27:54.296Z,14.90
2019-05-23T01:30:39.421Z,14.20
2019-05-23T01:33:08.169Z,14.57
2019-05-23T01:35:37.467Z,14.87
2019-05-23T01:38:07.733Z,15.40
2019-05-23T01:40:36.894Z,14.87
2019-05-23T01:43:05.383Z,14.97
2019-05-23T01:45:34.343Z,14.97
2019-05-23T01:48:03.972Z,15.40
2019-05-23T01:50:33.010Z,15.30
2019-05-23T01:53:01.703Z,16.07
2019-05-23T01:55:30.116Z,15.97
2019-05-23T01:57:58.875Z,14.87
2019-05-23T02:00:29.032Z,15.43
2019-05-23T02:02:57.698Z,14.80
2019-05-23T02:05:26.546Z,14.07
2019-05-23T02:07:56.645Z,13.90
2019-05-23T02:10:25.492Z,14.17
2019-05-23T02:12:54.096Z,14.07
2019-05-23T02:15:22.739Z,14.83
2019-05-23T02:17:52.716Z,14.70
2019-05-23T02:20:22.349Z,13.77
2019-05-23T02:22:51.525Z,13.77
2019-05-23T02:25:21.532Z,14.80
2019-05-23T02:27:50.856Z,15.63
2019-05-23T02:30:33.906Z,15.37
2019-05-23T02:32:52.034Z,14.60
2019-05-23T02:35:21.333Z,13.57
2019-05-23T02:37:51.417Z,14.60
2019-05-23T02:40:39.083Z,14.27
2019-05-23T02:43:28.290Z,14.83
2019-05-23T02:45:59.086Z,14.47
2019-05-23T02:48:31.242Z,14.83
2019-05-23T02:51:03.267Z,14.60
2019-05-23T02:53:35.209Z,15.03
2019-05-23T02:56:07.959Z,14.33
2019-05-23T02:59:17.647Z,13.67
2019-05-23T03:01:59.606Z,13.57
2019-05-23T03:04:30.822Z,16.03
2019-05-23T03:07:02.752Z,13.27
2019-05-23T03:09:36.647Z,14.00
2019-05-23T03:12:07.858Z,14.60
2019-05-23T03:14:37.900Z,14.53
2019-05-23T03:17:11.178Z,14.07
2019-05-23T03:19:44.702Z,13.60
2019-05-23T03:22:31.628Z,14.23
2019-05-23T03:25:04.346Z,13.37
2019-05-23T03:27:35.844Z,14.50
2019-05-23T03:30:08.480Z,12.57
2019-05-23T03:32:44.321Z,13.93
2019-05-23T03:35:14.530Z,13.80
2019-05-23T03:37:44.259Z,14.70
2019-05-23T03:40:15.372Z,14.50
2019-05-23T03:42:46.013Z,15.60
2019-05-23T03:45:15.119Z,12.93
2019-05-23T03:47:45.921Z,14.73
2019-05-23T03:50:15.030Z,13.53
2019-05-23T03:52:43.810Z,13.90
2019-05-23T03:55:13.254Z,13.00
2019-05-23T03:57:41.936Z,13.53
2019-05-23T04:00:14.130Z,12.90
2019-05-23T04:02:44.358Z,14.63
2019-05-23T04:05:12.878Z,14.73
2019-05-23T04:07:42.590Z,14.70
2019-05-23T04:10:12.716Z,15.00
2019-05-23T04:12:41.636Z,12.53
2019-05-23T04:15:11.069Z,13.80
2019-05-23T04:17:39.843Z,14.47
2019-05-23T04:20:09.631Z,14.10
2019-05-23T04:22:38.045Z,13.50
2019-05-23T04:25:09.775Z,12.70
2019-05-23T04:27:38.466Z,13.80
2019-05-23T04:30:08.883Z,12.73
2019-05-23T04:32:37.895Z,14.43
2019-05-23T04:35:06.882Z,13.13
2019-05-23T04:37:36.579Z,13.13
2019-05-23T04:40:11.257Z,13.70
2019-05-23T04:42:40.014Z,12.30
2019-05-23T04:45:08.874Z,13.63
2019-05-23T04:47:38.232Z,12.50
2019-05-23T04:50:14.190Z,12.43
2019-05-23T04:52:42.868Z,13.03
2019-05-23T04:55:12.802Z,12.93
2019-05-23T04:57:42.729Z,13.87
2019-05-23T05:00:16.192Z,12.40
2019-05-23T05:02:45.589Z,13.43
2019-05-23T05:05:14.773Z,12.50
2019-05-23T05:07:43.996Z,12.70
2019-05-23T05:10:15.382Z,12.27
2019-05-23T05:12:44.071Z,12.97
2019-05-23T05:15:13.440Z,13.43
2019-05-23T05:17:41.943Z,12.67
2019-05-23T05:20:12.099Z,12.73
2019-05-23T05:22:40.914Z,12.27
2019-05-23T05:25:10.666Z,11.90
2019-05-23T05:27:40.370Z,12.93
2019-05-23T05:30:09.537Z,11.13
2019-05-23T05:32:44.555Z,11.73
2019-05-23T05:35:09.401Z,11.53
2019-05-23T05:37:38.325Z,10.53
2019-05-23T05:40:07.999Z,10.43
2019-05-23T05:42:38.674Z,10.00
2019-05-23T05:45:10.441Z,10.03
2019-05-23T05:47:39.072Z,9.60
2019-05-23T05:50:10.780Z,9.77
2019-05-23T05:52:40.029Z,9.60
2019-05-23T05:55:09.088Z,9.23
2019-05-23T05:57:37.850Z,10.60
2019-05-23T06:00:12.830Z,10.00
2019-05-23T06:02:40.612Z,9.55
2019-05-23T06:05:11.120Z,9.53
2019-05-23T06:07:41.569Z,10.25
2019-05-23T06:10:12.569Z,10.10
2019-05-23T06:12:41.057Z,11.20
2019-05-23T06:15:10.390Z,11.97
2019-05-23T06:17:42.247Z,11.48
2019-05-23T06:20:11.113Z,10.78
2019-05-23T06:22:40.510Z,10.98
2019-05-23T06:25:10.138Z,10.43
2019-05-23T06:27:40.431Z,11.78
2019-05-23T06:30:12.463Z,11.22
2019-05-23T06:32:41.233Z,11.48
2019-05-23T06:35:09.721Z,11.20
2019-05-23T06:37:38.371Z,11.88
2019-05-23T06:40:08.196Z,11.88
2019-05-23T06:42:36.950Z,11.63
2019-05-23T06:45:10.438Z,12.20
2019-05-23T06:47:39.541Z,11.95
2019-05-23T06:50:15.503Z,11.85
2019-05-23T06:52:44.004Z,12.23
2019-05-23T06:55:12.493Z,12.45
2019-05-23T06:57:40.959Z,12.73
2019-05-23T07:00:09.987Z,13.00
2019-05-23T07:02:40.109Z,13.30
2019-05-23T07:05:08.872Z,12.73
2019-05-23T07:07:37.840Z,12.55
2019-05-23T07:10:07.972Z,13.70
2019-05-23T07:12:37.319Z,13.58
2019-05-23T07:15:07.447Z,13.72
2019-05-23T07:17:35.943Z,13.95
2019-05-23T07:20:07.435Z,13.40
2019-05-23T07:22:36.023Z,14.63
2019-05-23T07:25:07.752Z,15.68
2019-05-23T07:27:36.633Z,15.70
2019-05-23T07:30:23.218Z,14.73
2019-05-23T07:32:52.726Z,14.90
2019-05-23T07:35:40.580Z,15.53
2019-05-23T07:38:08.988Z,15.23
2019-05-23T07:40:37.416Z,14.68
2019-05-23T07:43:07.611Z,15.80
2019-05-23T07:45:44.010Z,15.95
2019-05-23T07:48:13.341Z,16.67
2019-05-23T07:50:41.953Z,16.05
2019-05-23T07:53:12.299Z,14.20
2019-05-23T07:55:48.508Z,13.20
2019-05-23T07:58:18.393Z,14.47
2019-05-23T08:00:54.387Z,13.22
2019-05-23T08:03:25.267Z,12.33
2019-05-23T08:05:54.148Z,12.82
2019-05-23T08:08:22.687Z,14.00
2019-05-23T08:10:51.167Z,13.43
2019-05-23T08:13:19.603Z,13.03
2019-05-23T08:15:48.481Z,12.60
2019-05-23T08:18:17.028Z,11.78
2019-05-23T08:20:46.472Z,12.65
2019-05-23T08:23:15.846Z,11.80
2019-05-23T08:25:44.340Z,10.43
2019-05-23T08:28:13.591Z,10.40
2019-05-23T08:30:42.153Z,11.00
2019-05-23T08:33:12.440Z,10.03
2019-05-23T08:35:40.948Z,7.47
2019-05-23T08:38:10.070Z,7.12
2019-05-23T08:40:39.572Z,7.95
2019-05-23T08:43:08.152Z,7.58
2019-05-23T08:45:37.011Z,6.10
2019-05-23T08:48:06.700Z,7.00
2019-05-23T08:50:35.541Z,7.83
2019-05-23T08:53:03.941Z,8.30
2019-05-23T08:55:33.171Z,7.08
2019-05-23T08:58:02.516Z,7.20
2019-05-23T09:00:32.680Z,8.45
2019-05-23T09:03:03.577Z,9.03
2019-05-23T09:05:36.823Z,8.15
2019-05-23T09:08:06.457Z,8.83
2019-05-23T09:10:36.166Z,8.00
2019-05-23T09:13:04.796Z,8.38
2019-05-23T09:15:33.216Z,8.48
2019-05-23T09:18:01.715Z,9.43
2019-05-23T09:20:30.558Z,9.30
2019-05-23T09:22:58.969Z,8.95
2019-05-23T09:25:27.414Z,8.93
2019-05-23T09:27:55.996Z,8.73
2019-05-23T09:30:24.969Z,9.15
2019-05-23T09:32:53.385Z,8.90
2019-05-23T09:35:22.474Z,8.60
2019-05-23T09:37:51.093Z,8.68
2019-05-23T09:40:19.661Z,6.85
2019-05-23T09:42:48.067Z,8.45
2019-05-23T09:45:17.738Z,6.70
2019-05-23T09:47:50.728Z,8.63
2019-05-23T09:50:18.392Z,8.75
2019-05-23T09:52:46.965Z,8.20
2019-05-23T09:55:15.713Z,8.35
2019-05-23T09:57:44.503Z,9.05
2019-05-23T10:00:15.998Z,8.35
2019-05-23T10:02:44.738Z,9.70
2019-05-23T10:05:13.479Z,9.83
2019-05-23T10:07:42.075Z,9.95
2019-05-23T10:10:11.670Z,9.60
2019-05-23T10:12:40.196Z,9.95
2019-05-23T10:15:11.589Z,9.65
2019-05-23T10:17:40.129Z,9.60
2019-05-23T10:20:09.630Z,10.23
2019-05-23T10:22:38.062Z,10.63
2019-05-23T10:25:08.382Z,10.05
2019-05-23T10:27:36.854Z,10.60
2019-05-23T10:30:11.976Z,10.15
2019-05-23T10:32:40.446Z,9.40
2019-05-23T10:35:09.818Z,8.15
2019-05-23T10:37:38.273Z,9.03
2019-05-23T10:40:08.329Z,7.53
2019-05-23T10:42:37.814Z,8.78
2019-05-23T10:45:09.425Z,8.85
2019-05-23T10:47:37.884Z,8.65
2019-05-23T10:50:09.910Z,8.05
2019-05-23T10:52:38.606Z,8.43
2019-05-23T10:55:07.630Z,8.75
2019-05-23T10:57:37.297Z,9.85
2019-05-23T11:00:09.886Z,10.78
2019-05-23T11:02:39.203Z,10.25
2019-05-23T11:05:12.960Z,9.10
2019-05-23T11:07:39.404Z,9.10
2019-05-23T11:10:08.065Z,10.53
2019-05-23T11:12:37.153Z,10.15
2019-05-23T11:15:09.043Z,8.88
2019-05-23T11:17:38.029Z,8.00
2019-05-23T11:20:08.464Z,7.08
2019-05-23T11:22:36.882Z,7.60
2019-05-23T11:25:08.478Z,8.13
2019-05-23T11:27:37.051Z,7.05
2019-05-23T11:30:12.166Z,7.40
2019-05-23T11:32:40.898Z,7.30
2019-05-23T11:35:09.594Z,6.90
2019-05-23T11:37:41.350Z,7.10
2019-05-23T11:40:08.860Z,6.58
2019-05-23T11:42:37.529Z,7.12
2019-05-23T11:45:07.183Z,6.95
2019-05-23T11:47:35.875Z,6.53
2019-05-23T11:50:05.946Z,6.30
2019-05-23T11:52:34.420Z,5.97
2019-05-23T11:55:03.867Z,6.72
2019-05-23T11:57:32.628Z,5.45
2019-05-23T12:00:01.878Z,6.33
2019-05-23T12:02:31.951Z,6.15
2019-05-23T12:05:02.373Z,6.20
2019-05-23T12:07:30.782Z,6.60
2019-05-23T12:09:59.292Z,6.53
2019-05-23T12:12:27.835Z,5.60
2019-05-23T12:14:56.587Z,4.42
2019-05-23T12:17:26.419Z,5.22
2019-05-23T12:19:55.223Z,6.08
2019-05-23T12:22:24.110Z,6.00
2019-05-23T12:24:52.602Z,5.65
2019-05-23T12:27:21.011Z,6.03
2019-05-23T12:29:49.410Z,5.12
2019-05-23T12:32:17.901Z,5.55
2019-05-23T12:35:08.061Z,5.67
2019-05-23T12:37:19.564Z,6.42
2019-05-23T12:39:46.654Z,5.10
2019-05-23T12:42:15.119Z,5.83
2019-05-23T12:44:43.590Z,6.17
2019-05-23T12:47:13.705Z,5.92
2019-05-23T12:49:43.774Z,5.80
2019-05-23T12:52:12.943Z,6.22
2019-05-23T12:54:41.530Z,6.50
2019-05-23T12:57:10.262Z,5.70
2019-05-23T12:59:38.678Z,5.05
2019-05-23T13:02:09.085Z,4.92
2019-05-23T13:04:37.553Z,5.40
2019-05-23T13:07:06.173Z,5.00
2019-05-23T13:09:34.946Z,4.58
2019-05-23T13:12:03.374Z,5.22
2019-05-23T13:14:32.559Z,6.62
2019-05-23T13:17:01.797Z,6.90
2019-05-23T13:19:30.466Z,6.12
2019-05-23T13:21:58.967Z,7.20
2019-05-23T13:24:28.247Z,7.47
2019-05-23T13:26:56.820Z,7.78
2019-05-23T13:29:26.175Z,7.53
2019-05-23T13:31:54.747Z,8.53
2019-05-23T13:34:23.330Z,8.85
2019-05-23T13:36:51.830Z,11.20
2019-05-23T13:39:21.350Z,9.85
2019-05-23T13:41:50.071Z,11.57
2019-05-23T13:44:33.013Z,10.00
2019-05-23T13:46:49.040Z,10.90
2019-05-23T13:49:18.000Z,9.68
2019-05-23T13:51:46.892Z,11.20
2019-05-23T13:54:15.424Z,11.00
2019-05-23T13:56:47.608Z,10.95
2019-05-23T13:59:14.289Z,10.60
2019-05-23T14:01:43.022Z,11.12
2019-05-23T14:04:11.518Z,11.08
2019-05-23T14:06:40.008Z,11.73
2019-05-23T14:09:09.204Z,11.65
2019-05-23T14:11:38.547Z,10.88
2019-05-23T14:14:07.508Z,11.48
2019-05-23T14:16:38.059Z,10.95
2019-05-23T14:19:06.813Z,10.85
2019-05-23T14:21:36.189Z,10.00
2019-05-23T14:24:05.946Z,10.70
2019-05-23T14:26:36.324Z,9.15
2019-05-23T14:29:04.824Z,10.15
2019-05-23T14:31:37.586Z,8.68
2019-05-23T14:34:08.377Z,10.23
2019-05-23T14:36:54.039Z,8.63
2019-05-23T14:39:24.105Z,9.13
2019-05-23T14:42:06.355Z,9.25
2019-05-23T14:44:34.900Z,9.38
2019-05-23T14:47:20.084Z,8.33
2019-05-23T14:50:06.701Z,8.73
2019-05-23T14:52:36.752Z,8.03
2019-05-23T14:55:10.388Z,7.72
2019-05-23T14:57:39.550Z,8.85
2019-05-23T15:00:08.758Z,9.40
2019-05-23T15:02:37.262Z,9.15
2019-05-23T15:05:09.772Z,8.00
2019-05-23T15:07:38.223Z,9.88
2019-05-23T15:10:07.825Z,8.90
2019-05-23T15:12:36.301Z,9.25
2019-05-23T15:15:06.513Z,9.25
2019-05-23T15:17:34.923Z,8.10
2019-05-23T15:20:04.768Z,7.80
2019-05-23T15:22:33.257Z,8.30
2019-05-23T15:25:01.683Z,7.65
2019-05-23T15:27:33.102Z,7.92
2019-05-23T15:30:00.313Z,7.70
2019-05-23T15:32:29.055Z,7.45
2019-05-23T15:34:57.528Z,8.10
2019-05-23T15:37:26.019Z,8.43
2019-05-23T15:39:54.701Z,8.15
2019-05-23T15:42:23.426Z,7.22
2019-05-23T15:44:52.031Z,7.47
2019-05-23T15:47:22.689Z,7.92
2019-05-23T15:49:53.178Z,7.10
2019-05-23T15:52:23.230Z,7.70
2019-05-23T15:54:53.301Z,6.97
2019-05-23T15:57:40.262Z,6.25
2019-05-23T16:00:20.314Z,7.75
2019-05-23T16:02:51.058Z,6.00
2019-05-23T16:05:19.876Z,5.67
2019-05-23T16:07:50.333Z,5.70
2019-05-23T16:10:20.356Z,5.33
2019-05-23T16:12:48.757Z,3.98
2019-05-23T16:15:17.383Z,4.87
2019-05-23T16:17:45.861Z,5.80
2019-05-23T16:20:14.415Z,4.60
2019-05-23T16:22:44.668Z,4.10
2019-05-23T16:25:13.555Z,3.90
2019-05-23T16:27:41.976Z,4.28
2019-05-23T16:30:10.463Z,3.50
2019-05-23T16:32:38.883Z,3.42
2019-05-23T16:35:07.426Z,3.33
2019-05-23T16:37:35.862Z,3.67
2019-05-23T16:40:06.568Z,3.55
2019-05-23T16:42:34.977Z,4.58
2019-05-23T16:45:04.732Z,4.83
2019-05-23T16:47:33.145Z,4.90
2019-05-23T16:50:01.553Z,5.67
2019-05-23T16:52:30.034Z,5.95
2019-05-23T16:54:59.213Z,5.60
2019-05-23T16:57:29.337Z,4.62
2019-05-23T17:00:02.137Z,5.00
2019-05-23T17:02:35.109Z,5.05
2019-05-23T17:05:25.032Z,5.00
2019-05-23T17:08:03.959Z,4.55
2019-05-23T17:10:49.264Z,3.97
2019-05-23T17:13:22.297Z,4.53
2019-05-23T17:15:55.055Z,4.33
2019-05-23T17:18:43.204Z,4.00
2019-05-23T17:21:19.286Z,4.30
2019-05-23T17:23:49.670Z,3.40
2019-05-23T17:26:25.762Z,4.13
2019-05-23T17:28:56.032Z,3.72
2019-05-23T17:31:29.172Z,3.47
2019-05-23T17:33:57.666Z,2.83
2019-05-23T17:36:26.219Z,3.17
2019-05-23T17:38:55.298Z,3.60
2019-05-23T17:41:24.532Z,2.77
2019-05-23T17:43:53.304Z,3.00
2019-05-23T17:46:22.011Z,2.80
2019-05-23T17:48:50.948Z,2.90
2019-05-23T17:51:19.653Z,2.70
2019-05-23T17:53:48.339Z,2.97
2019-05-23T17:56:17.099Z,3.20
2019-05-23T17:58:45.596Z,3.10
2019-05-23T18:01:14.441Z,3.17
2019-05-23T18:03:43.017Z,3.37
2019-05-23T18:06:12.017Z,3.77
2019-05-23T18:08:41.065Z,3.33
2019-05-23T18:11:10.115Z,3.73
2019-05-23T18:13:38.920Z,3.13
2019-05-23T18:16:07.651Z,3.57
2019-05-23T18:18:36.192Z,3.67
2019-05-23T18:21:05.241Z,3.80
2019-05-23T18:23:34.335Z,3.53
2019-05-23T18:26:03.020Z,3.50
2019-05-23T18:28:32.425Z,3.60
2019-05-23T18:31:07.364Z,4.10
2019-05-23T18:33:33.844Z,4.13
2019-05-23T18:36:03.658Z,3.23
2019-05-23T18:38:32.672Z,4.00
2019-05-23T18:41:05.636Z,3.60
2019-05-23T18:43:32.922Z,4.30
2019-05-23T18:46:05.793Z,4.33
2019-05-23T18:48:34.189Z,4.67
2019-05-23T18:51:02.946Z,5.60
2019-05-23T18:53:31.340Z,4.80
2019-05-23T18:55:59.929Z,4.80
2019-05-23T18:58:28.402Z,4.63
2019-05-23T19:01:03.509Z,4.43
2019-05-23T19:03:32.900Z,4.87
2019-05-23T19:06:01.800Z,5.57
2019-05-23T19:08:30.653Z,5.00
2019-05-23T19:10:59.807Z,4.80
2019-05-23T19:13:28.498Z,5.63
2019-05-23T19:15:56.978Z,5.70
2019-05-23T19:18:26.028Z,4.77
2019-05-23T19:20:55.821Z,4.95
2019-05-23T19:23:25.145Z,4.70
2019-05-23T19:25:54.910Z,4.70
2019-05-23T19:28:24.683Z,4.73
2019-05-23T19:30:54.024Z,4.30
2019-05-23T19:33:23.133Z,4.60
2019-05-23T19:35:51.648Z,4.53
2019-05-23T19:38:20.123Z,4.37
2019-05-23T19:40:49.270Z,4.80
2019-05-23T19:43:19.421Z,4.33
2019-05-23T19:45:47.978Z,4.83
2019-05-23T19:48:17.440Z,5.93
2019-05-23T19:50:46.003Z,5.40
2019-05-23T19:53:14.463Z,4.93
2019-05-23T19:55:42.866Z,5.47
2019-05-23T19:58:11.461Z,5.23
2019-05-23T20:00:40.738Z,5.53
2019-05-23T20:03:09.226Z,5.60
2019-05-23T20:05:39.160Z,5.87
2019-05-23T20:08:07.939Z,5.80
2019-05-23T20:10:37.622Z,5.77
2019-05-23T20:13:06.192Z,5.40
2019-05-23T20:15:34.766Z,6.13
2019-05-23T20:18:03.514Z,5.27
2019-05-23T20:20:33.565Z,4.83
2019-05-23T20:23:02.272Z,5.50
2019-05-23T20:25:31.268Z,5.63
2019-05-23T20:27:59.683Z,5.40
2019-05-23T20:30:47.068Z,5.03
2019-05-23T20:33:15.756Z,5.70
2019-05-23T20:35:44.475Z,5.33
2019-05-23T20:38:13.373Z,5.00
2019-05-23T20:40:42.263Z,6.00
2019-05-23T20:43:10.677Z,6.13
2019-05-23T20:45:39.472Z,4.83
2019-05-23T20:48:08.227Z,5.40
2019-05-23T20:50:36.982Z,5.30
2019-05-23T20:53:05.849Z,5.03
2019-05-23T20:55:34.921Z,5.20
2019-05-23T20:58:05.061Z,5.80
2019-05-23T21:00:35.675Z,5.13
2019-05-23T21:03:05.234Z,4.60
2019-05-23T21:05:33.645Z,5.20
2019-05-23T21:08:02.124Z,6.20
2019-05-23T21:10:42.360Z,5.53
2019-05-23T21:13:10.939Z,5.53
2019-05-23T21:15:40.861Z,5.80
2019-05-23T21:18:09.720Z,5.73
2019-05-23T21:20:38.185Z,6.20
2019-05-23T21:23:06.775Z,5.00
2019-05-23T21:25:36.963Z,7.43
2019-05-23T21:28:05.552Z,7.53
2019-05-23T21:30:34.035Z,7.77
2019-05-23T21:33:02.451Z,6.47
2019-05-23T21:35:31.594Z,6.30
2019-05-23T21:38:00.072Z,6.90
2019-05-23T21:40:37.482Z,6.60
2019-05-23T21:43:05.960Z,6.40
2019-05-23T21:45:34.579Z,6.50
2019-05-23T21:48:03.228Z,7.30
2019-05-23T21:50:31.827Z,6.70
2019-05-23T21:53:00.271Z,6.50
2019-05-23T21:55:39.407Z,6.57
2019-05-23T21:58:09.077Z,6.63
2019-05-23T22:01:06.525Z,6.40
2019-05-23T22:03:52.935Z,6.67
2019-05-23T22:06:24.596Z,6.90
2019-05-23T22:08:53.024Z,6.27
2019-05-23T22:11:21.514Z,6.63
2019-05-23T22:13:50.011Z,7.50
2019-05-23T22:16:18.935Z,7.27
2019-05-23T22:18:47.369Z,8.03
2019-05-23T22:21:16.330Z,7.20
2019-05-23T22:23:44.808Z,8.03
2019-05-23T22:26:13.406Z,7.70
2019-05-23T22:28:41.827Z,7.60
2019-05-23T22:31:10.909Z,6.87
2019-05-23T22:33:47.218Z,7.70
2019-05-23T22:36:16.172Z,7.00
2019-05-23T22:38:44.599Z,8.00
2019-05-23T22:41:13.067Z,8.10
2019-05-23T22:43:41.519Z,8.17
2019-05-23T22:46:10.364Z,8.63
2019-05-23T22:48:39.051Z,9.27
2019-05-23T22:51:07.548Z,9.73
2019-05-23T22:53:35.951Z,8.87
2019-05-23T22:56:04.644Z,9.00
2019-05-23T22:58:33.413Z,8.73
2019-05-23T23:01:02.090Z,8.07
2019-05-23T23:03:30.500Z,8.50
2019-05-23T23:05:58.937Z,7.70
2019-05-23T23:08:28.009Z,8.00
2019-05-23T23:10:56.440Z,8.20
2019-05-23T23:13:38.108Z,7.93
2019-05-23T23:15:55.552Z,7.73
2019-05-23T23:18:24.034Z,8.13
2019-05-23T23:20:53.531Z,8.43
2019-05-23T23:23:21.951Z,8.77
2019-05-23T23:25:50.364Z,7.80
2019-05-23T23:28:18.808Z,8.00
2019-05-23T23:30:49.255Z,7.97
2019-05-23T23:33:18.196Z,8.93
2019-05-23T23:35:46.599Z,8.07
2019-05-23T23:38:15.527Z,8.17
2019-05-23T23:40:44.181Z,8.93
2019-05-23T23:43:12.614Z,8.33
2019-05-23T23:45:59.272Z,8.43
2019-05-23T23:48:46.266Z,8.30
2019-05-23T23:51:32.595Z,8.33
2019-05-23T23:54:19.107Z,8.70
2019-05-23T23:57:05.550Z,9.43
2019-05-23T23:59:33.520Z,8.03
